createdAt,value
2023-04-16T00:01:27.542Z,1.20
2023-04-16T00:03:55.052Z,1.13
2023-04-16T00:06:23.066Z,2.90
2023-04-16T00:08:50.420Z,0.87
2023-04-16T00:11:17.428Z,1.13
2023-04-16T00:13:44.014Z,1.00
2023-04-16T00:16:10.761Z,1.07
2023-04-16T00:18:37.384Z,1.30
2023-04-16T00:21:04.069Z,3.67
2023-04-16T00:23:30.615Z,1.37
2023-04-16T00:25:59.984Z,1.13
2023-04-16T00:28:27.698Z,1.30
2023-04-16T00:30:54.976Z,1.17
2023-04-16T00:33:21.865Z,1.03
2023-04-16T00:35:49.172Z,1.13
2023-04-16T00:38:16.047Z,1.40
2023-04-16T00:40:42.679Z,1.73
2023-04-16T00:43:09.288Z,1.03
2023-04-16T00:45:36.603Z,1.70
2023-04-16T00:48:03.275Z,1.00
2023-04-16T00:50:30.105Z,0.80
2023-04-16T00:52:56.851Z,1.17
2023-04-16T00:55:23.523Z,1.10
2023-04-16T00:57:50.113Z,1.10
2023-04-16T01:00:17.005Z,1.43
2023-04-16T01:02:43.765Z,1.23
2023-04-16T01:05:10.487Z,1.10
2023-04-16T01:07:37.126Z,1.90
2023-04-16T01:10:04.305Z,1.13
2023-04-16T01:12:31.224Z,1.97
2023-04-16T01:14:57.849Z,1.63
2023-04-16T01:17:24.451Z,1.43
2023-04-16T01:19:51.107Z,1.20
2023-04-16T01:22:17.736Z,0.80
2023-04-16T01:24:45.065Z,2.37
2023-04-16T01:27:11.681Z,1.13
2023-04-16T01:29:38.295Z,1.20
2023-04-16T01:32:05.014Z,2.34
2023-04-16T01:34:31.681Z,1.70
2023-04-16T01:36:58.485Z,1.83
2023-04-16T01:39:25.132Z,1.60
2023-04-16T01:41:51.716Z,1.67
2023-04-16T01:44:18.404Z,0.90
2023-04-16T01:46:45.319Z,1.53
2023-04-16T01:49:12.280Z,2.43
2023-04-16T01:51:38.955Z,1.27
2023-04-16T01:54:05.587Z,0.97
2023-04-16T01:56:32.283Z,1.47
2023-04-16T01:59:00.164Z,1.00
2023-04-16T02:01:26.969Z,2.33
2023-04-16T02:03:53.913Z,1.10
2023-04-16T02:06:20.595Z,0.80
2023-04-16T02:08:47.173Z,0.70
2023-04-16T02:11:13.754Z,0.80
2023-04-16T02:13:40.501Z,1.10
2023-04-16T02:16:07.286Z,0.90
2023-04-16T02:18:33.866Z,0.90
2023-04-16T02:21:00.574Z,0.80
2023-04-16T02:23:27.215Z,1.20
2023-04-16T02:25:53.817Z,1.10
2023-04-16T02:28:20.426Z,1.83
2023-04-16T02:30:47.081Z,1.40
2023-04-16T02:33:13.678Z,1.23
2023-04-16T02:35:40.726Z,1.10
2023-04-16T02:38:07.698Z,1.33
2023-04-16T02:40:34.466Z,5.77
2023-04-16T02:43:01.224Z,8.40
2023-04-16T02:45:27.957Z,2.57
2023-04-16T02:47:54.614Z,3.83
2023-04-16T02:50:21.364Z,4.53
2023-04-16T02:52:48.632Z,3.57
2023-04-16T02:55:15.432Z,4.13
2023-04-16T02:57:42.727Z,5.70
2023-04-16T03:00:09.928Z,5.60
2023-04-16T03:02:36.799Z,3.77
2023-04-16T03:05:04.273Z,5.87
2023-04-16T03:07:31.004Z,3.17
2023-04-16T03:09:57.695Z,3.10
2023-04-16T03:12:24.381Z,4.73
2023-04-16T03:14:52.745Z,5.03
2023-04-16T03:17:19.522Z,6.37
2023-04-16T03:19:46.215Z,7.90
2023-04-16T03:22:13.106Z,4.73
2023-04-16T03:24:39.703Z,7.37
2023-04-16T03:27:06.300Z,5.80
2023-04-16T03:29:33.126Z,5.97
2023-04-16T03:31:59.897Z,5.40
2023-04-16T03:34:26.923Z,4.27
2023-04-16T03:36:53.477Z,5.13
2023-04-16T03:39:20.063Z,10.43
2023-04-16T03:41:46.955Z,7.23
2023-04-16T03:44:13.543Z,5.00
2023-04-16T03:46:40.618Z,5.37
2023-04-16T03:49:07.503Z,6.30
2023-04-16T03:51:34.564Z,3.87
2023-04-16T03:54:01.168Z,5.93
2023-04-16T03:56:27.778Z,6.67
2023-04-16T03:58:54.396Z,8.27
2023-04-16T04:01:21.030Z,6.07
2023-04-16T04:03:47.973Z,6.53
2023-04-16T04:06:14.969Z,8.83
2023-04-16T04:08:41.512Z,4.70
2023-04-16T04:11:08.071Z,7.30
2023-04-16T04:13:34.662Z,5.57
2023-04-16T04:16:01.394Z,7.03
2023-04-16T04:18:28.033Z,7.23
2023-04-16T04:20:54.673Z,4.37
2023-04-16T04:23:21.356Z,3.40
2023-04-16T04:25:47.984Z,2.93
2023-04-16T04:28:14.717Z,3.40
2023-04-16T04:30:41.728Z,5.30
2023-04-16T04:33:08.302Z,6.60
2023-04-16T04:35:34.981Z,2.93
2023-04-16T04:38:02.878Z,6.63
2023-04-16T04:40:29.524Z,2.53
2023-04-16T04:42:56.157Z,2.40
2023-04-16T04:45:25.579Z,3.93
2023-04-16T04:47:55.358Z,3.20
2023-04-16T04:50:22.478Z,3.30
2023-04-16T04:52:49.130Z,3.83
2023-04-16T04:55:16.184Z,6.90
2023-04-16T04:57:42.820Z,4.70
2023-04-16T05:00:10.013Z,5.00
2023-04-16T05:02:36.756Z,5.03
2023-04-16T05:05:04.237Z,5.30
2023-04-16T05:07:31.701Z,4.77
2023-04-16T05:09:58.255Z,5.67
2023-04-16T05:12:24.861Z,4.70
2023-04-16T05:14:51.565Z,6.30
2023-04-16T05:17:18.215Z,3.70
2023-04-16T05:19:44.773Z,5.27
2023-04-16T05:22:11.352Z,5.30
2023-04-16T05:24:37.968Z,3.27
2023-04-16T05:27:04.613Z,3.17
2023-04-16T05:29:31.239Z,3.40
2023-04-16T05:31:57.867Z,3.43
2023-04-16T05:34:24.445Z,6.27
2023-04-16T05:36:51.044Z,4.30
2023-04-16T05:39:18.640Z,4.20
2023-04-16T05:41:45.408Z,7.43
2023-04-16T05:44:11.981Z,5.33
2023-04-16T05:46:38.653Z,6.33
2023-04-16T05:49:05.283Z,6.03
2023-04-16T05:51:32.202Z,6.00
2023-04-16T05:53:58.903Z,6.63
2023-04-16T05:56:25.602Z,3.77
2023-04-16T05:58:52.219Z,4.43
2023-04-16T06:01:18.824Z,8.60
2023-04-16T06:03:45.660Z,5.27
2023-04-16T06:06:12.414Z,8.87
2023-04-16T06:08:39.054Z,5.07
2023-04-16T06:11:05.730Z,5.40
2023-04-16T06:13:32.345Z,5.20
2023-04-16T06:15:59.058Z,5.47
2023-04-16T06:18:25.689Z,4.80
2023-04-16T06:20:52.641Z,8.60
2023-04-16T06:23:19.267Z,3.93
2023-04-16T06:25:45.908Z,4.80
2023-04-16T06:28:12.598Z,5.77
2023-04-16T06:30:39.505Z,6.03
2023-04-16T06:33:06.111Z,4.03
2023-04-16T06:35:35.458Z,3.87
2023-04-16T06:38:02.153Z,3.07
2023-04-16T06:40:28.779Z,5.33
2023-04-16T06:42:56.405Z,3.30
2023-04-16T06:45:22.993Z,4.13
2023-04-16T06:47:49.884Z,2.60
2023-04-16T06:50:16.557Z,4.63
2023-04-16T06:52:43.135Z,2.80
2023-04-16T06:55:10.117Z,4.83
2023-04-16T06:57:37.653Z,3.13
2023-04-16T07:00:07.717Z,3.83
2023-04-16T07:02:34.524Z,7.50
2023-04-16T07:05:01.356Z,5.00
2023-04-16T07:07:27.985Z,5.23
2023-04-16T07:09:54.574Z,4.63
2023-04-16T07:12:22.685Z,5.17
2023-04-16T07:14:49.590Z,6.63
2023-04-16T07:17:16.169Z,8.53
2023-04-16T07:19:42.743Z,7.00
2023-04-16T07:22:09.334Z,3.77
2023-04-16T07:24:36.047Z,6.10
2023-04-16T07:27:05.392Z,5.13
2023-04-16T07:29:31.967Z,7.47
2023-04-16T07:31:58.576Z,5.70
2023-04-16T07:34:25.256Z,8.03
2023-04-16T07:36:51.843Z,8.93
2023-04-16T07:39:18.470Z,9.40
2023-04-16T07:41:45.028Z,9.83
2023-04-16T07:44:11.624Z,5.70
2023-04-16T07:46:46.453Z,9.77
2023-04-16T07:49:14.348Z,5.00
2023-04-16T07:51:41.129Z,9.17
2023-04-16T07:54:07.815Z,6.23
2023-04-16T07:56:34.462Z,6.70
2023-04-16T07:59:14.464Z,8.57
2023-04-16T08:01:45.587Z,8.13
2023-04-16T08:04:12.597Z,8.63
2023-04-16T08:06:39.326Z,7.90
2023-04-16T08:09:06.133Z,7.37
2023-04-16T08:11:32.738Z,7.63
2023-04-16T08:13:59.299Z,7.77
2023-04-16T08:16:25.942Z,8.47
2023-04-16T08:18:52.592Z,8.20
2023-04-16T08:21:19.161Z,7.47
2023-04-16T08:23:45.874Z,6.47
2023-04-16T08:26:12.448Z,5.73
2023-04-16T08:28:39.128Z,8.27
2023-04-16T08:31:10.284Z,7.95
2023-04-16T08:33:36.902Z,8.00
2023-04-16T08:36:03.565Z,6.87
2023-04-16T08:38:30.215Z,7.67
2023-04-16T08:40:58.592Z,5.93
2023-04-16T08:43:25.460Z,7.70
2023-04-16T08:45:53.848Z,6.70
2023-04-16T08:48:22.141Z,7.87
2023-04-16T08:50:53.054Z,6.10
2023-04-16T08:53:26.239Z,5.60
2023-04-16T08:55:53.360Z,8.40
2023-04-16T08:58:22.064Z,8.43
2023-04-16T09:00:49.130Z,5.70
2023-04-16T09:03:16.067Z,6.10
2023-04-16T09:05:43.211Z,6.97
2023-04-16T09:08:09.899Z,5.70
2023-04-16T09:10:36.717Z,7.27
2023-04-16T09:13:03.343Z,5.07
2023-04-16T09:15:30.158Z,4.63
2023-04-16T09:17:57.800Z,6.63
2023-04-16T09:20:25.921Z,4.70
2023-04-16T09:22:52.628Z,3.73
2023-04-16T09:25:21.026Z,6.03
2023-04-16T09:27:50.065Z,5.40
2023-04-16T09:30:23.677Z,5.50
2023-04-16T09:32:52.088Z,5.37
2023-04-16T09:35:21.993Z,5.03
2023-04-16T09:37:58.110Z,5.73
2023-04-16T09:40:26.665Z,6.77
2023-04-16T09:42:57.452Z,6.47
2023-04-16T09:45:24.495Z,6.60
2023-04-16T09:47:51.203Z,3.43
2023-04-16T09:50:19.230Z,7.30
2023-04-16T09:52:49.000Z,4.03
2023-04-16T09:55:15.603Z,6.93
2023-04-16T09:57:42.171Z,6.97
2023-04-16T10:00:10.462Z,8.30
2023-04-16T10:02:41.975Z,7.20
2023-04-16T10:05:09.374Z,7.83
2023-04-16T10:07:36.938Z,6.87
2023-04-16T10:10:04.464Z,11.50
2023-04-16T10:12:32.949Z,8.27
2023-04-16T10:14:59.795Z,7.33
2023-04-16T10:17:30.056Z,8.00
2023-04-16T10:19:58.272Z,6.33
2023-04-16T10:22:25.936Z,6.43
2023-04-16T10:24:52.671Z,7.03
2023-04-16T10:27:19.669Z,5.37
2023-04-16T10:29:46.798Z,6.33
2023-04-16T10:32:13.726Z,3.47
2023-04-16T10:34:40.551Z,7.60
2023-04-16T10:37:07.356Z,4.37
2023-04-16T10:39:37.423Z,7.07
2023-04-16T10:42:12.019Z,8.43
2023-04-16T10:44:42.550Z,8.60
2023-04-16T10:47:15.690Z,4.60
2023-04-16T10:49:43.595Z,8.27
2023-04-16T10:52:18.594Z,4.57
2023-04-16T10:54:46.981Z,3.90
2023-04-16T10:57:18.417Z,6.27
2023-04-16T10:59:46.103Z,7.37
2023-04-16T11:02:17.904Z,5.27
2023-04-16T11:04:46.441Z,6.33
2023-04-16T11:07:16.604Z,7.07
2023-04-16T11:09:52.612Z,7.03
2023-04-16T11:12:23.296Z,6.93
2023-04-16T11:15:06.196Z,5.23
2023-04-16T11:17:40.200Z,6.00
2023-04-16T11:20:19.338Z,6.47
2023-04-16T11:22:47.382Z,8.47
2023-04-16T11:25:31.751Z,6.30
2023-04-16T11:28:01.756Z,7.80
2023-04-16T11:30:39.372Z,6.00
2023-04-16T11:33:08.493Z,5.85
2023-04-16T11:35:35.683Z,5.40
2023-04-16T11:38:02.387Z,5.37
2023-04-16T11:40:32.079Z,5.97
2023-04-16T11:43:13.073Z,5.30
2023-04-16T11:45:41.154Z,5.83
2023-04-16T11:48:09.912Z,4.97
2023-04-16T11:50:37.873Z,5.13
2023-04-16T11:53:05.878Z,4.67
2023-04-16T11:55:32.680Z,5.00
2023-04-16T11:58:11.679Z,6.33
2023-04-16T12:00:38.543Z,4.53
2023-04-16T12:03:05.349Z,10.50
2023-04-16T12:05:38.751Z,3.60
2023-04-16T12:08:07.551Z,6.70
2023-04-16T12:10:40.664Z,7.60
2023-04-16T12:13:15.180Z,4.37
2023-04-16T12:15:47.188Z,5.83
2023-04-16T12:18:14.780Z,5.13
2023-04-16T12:20:44.163Z,5.50
2023-04-16T12:23:27.900Z,6.33
2023-04-16T12:25:55.127Z,7.37
2023-04-16T12:28:47.806Z,5.77
2023-04-16T12:31:15.057Z,5.77
2023-04-16T12:33:42.550Z,6.10
2023-04-16T12:36:19.333Z,6.80
2023-04-16T12:38:46.627Z,10.90
2023-04-16T12:41:13.232Z,4.37
2023-04-16T12:43:39.883Z,6.17
2023-04-16T12:46:06.853Z,8.13
2023-04-16T12:48:33.887Z,5.50
2023-04-16T12:51:00.508Z,7.77
2023-04-16T12:53:27.219Z,8.07
2023-04-16T12:55:53.933Z,9.37
2023-04-16T12:58:20.542Z,6.97
2023-04-16T13:00:47.103Z,6.23
2023-04-16T13:03:13.957Z,6.43
2023-04-16T13:05:40.799Z,7.50
2023-04-16T13:08:07.445Z,6.00
2023-04-16T13:10:35.466Z,4.40
2023-04-16T13:13:02.093Z,5.77
2023-04-16T13:15:28.942Z,6.40
2023-04-16T13:17:55.869Z,9.17
2023-04-16T13:20:24.424Z,5.77
2023-04-16T13:22:51.389Z,6.63
2023-04-16T13:25:18.010Z,6.07
2023-04-16T13:27:44.655Z,6.07
2023-04-16T13:30:11.803Z,4.43
2023-04-16T13:32:38.446Z,6.90
2023-04-16T13:35:05.463Z,5.40
2023-04-16T13:37:32.121Z,4.93
2023-04-16T13:39:58.656Z,4.03
2023-04-16T13:42:25.228Z,5.77
2023-04-16T13:44:54.285Z,5.83
2023-04-16T13:47:21.094Z,4.40
2023-04-16T13:49:47.716Z,5.50
2023-04-16T13:52:14.389Z,6.30
2023-04-16T13:54:41.535Z,5.33
2023-04-16T13:57:08.159Z,5.13
2023-04-16T13:59:34.737Z,2.83
2023-04-16T14:02:01.399Z,7.47
2023-04-16T14:04:28.078Z,4.00
2023-04-16T14:06:54.856Z,4.47
2023-04-16T14:09:21.432Z,3.57
2023-04-16T14:11:48.098Z,4.77
2023-04-16T14:14:14.749Z,6.00
2023-04-16T14:16:41.413Z,3.70
2023-04-16T14:19:08.170Z,2.90
2023-04-16T14:21:34.923Z,3.17
2023-04-16T14:24:02.034Z,4.90
2023-04-16T14:26:28.752Z,7.58
2023-04-16T14:28:55.390Z,3.00
2023-04-16T14:31:22.118Z,5.87
2023-04-16T14:33:48.726Z,7.43
2023-04-16T14:36:15.750Z,5.90
2023-04-16T14:38:43.372Z,4.57
2023-04-16T14:41:12.054Z,6.57
2023-04-16T14:43:40.560Z,3.13
2023-04-16T14:46:07.328Z,5.13
2023-04-16T14:48:34.087Z,5.63
2023-04-16T14:51:00.701Z,2.90
2023-04-16T14:53:27.424Z,4.80
2023-04-16T14:55:54.221Z,3.03
2023-04-16T14:58:21.958Z,4.47
2023-04-16T15:00:48.520Z,6.00
2023-04-16T15:03:15.444Z,5.60
2023-04-16T15:05:42.161Z,5.13
2023-04-16T15:08:08.753Z,3.43
2023-04-16T15:10:35.520Z,4.57
2023-04-16T15:13:02.140Z,4.73
2023-04-16T15:15:28.858Z,7.27
2023-04-16T15:17:57.144Z,5.60
2023-04-16T15:20:23.798Z,4.97
2023-04-16T15:22:50.414Z,2.50
2023-04-16T15:25:17.307Z,3.23
2023-04-16T15:27:43.918Z,3.00
2023-04-16T15:30:11.439Z,3.77
2023-04-16T15:32:38.220Z,2.70
2023-04-16T15:35:05.085Z,4.03
2023-04-16T15:37:31.975Z,3.30
2023-04-16T15:39:58.611Z,3.80
2023-04-16T15:42:25.227Z,3.33
2023-04-16T15:44:51.811Z,4.33
2023-04-16T15:47:18.500Z,5.53
2023-04-16T15:49:45.110Z,5.37
2023-04-16T15:52:12.168Z,6.57
2023-04-16T15:54:38.894Z,4.03
2023-04-16T15:57:05.557Z,5.30
2023-04-16T15:59:32.851Z,4.47
2023-04-16T16:01:59.758Z,4.00
2023-04-16T16:04:26.700Z,3.83
2023-04-16T16:06:53.917Z,8.20
2023-04-16T16:09:25.861Z,3.53
2023-04-16T16:11:55.725Z,7.43
2023-04-16T16:14:22.791Z,3.83
2023-04-16T16:16:49.591Z,4.03
2023-04-16T16:19:16.702Z,2.13
2023-04-16T16:21:43.423Z,6.13
2023-04-16T16:24:10.070Z,5.97
2023-04-16T16:26:36.655Z,6.83
2023-04-16T16:29:03.351Z,3.33
2023-04-16T16:31:29.999Z,3.83
2023-04-16T16:33:56.679Z,4.60
2023-04-16T16:36:23.268Z,5.97
2023-04-16T16:38:49.923Z,6.90
2023-04-16T16:41:16.482Z,4.43
2023-04-16T16:43:43.162Z,5.03
2023-04-16T16:46:10.051Z,5.27
2023-04-16T16:48:36.840Z,10.47
2023-04-16T16:51:03.598Z,5.70
2023-04-16T16:53:30.224Z,6.07
2023-04-16T16:55:56.792Z,6.00
2023-04-16T16:58:23.362Z,9.63
2023-04-16T17:00:49.993Z,5.03
2023-04-16T17:03:17.110Z,6.13
2023-04-16T17:05:43.892Z,7.23
2023-04-16T17:08:10.525Z,5.37
2023-04-16T17:10:37.080Z,6.70
2023-04-16T17:13:03.815Z,11.03
2023-04-16T17:15:30.492Z,6.00
2023-04-16T17:17:57.280Z,9.00
2023-04-16T17:20:23.992Z,9.83
2023-04-16T17:22:51.257Z,6.80
2023-04-16T17:25:17.939Z,7.03
2023-04-16T17:27:44.528Z,6.70
2023-04-16T17:30:11.428Z,4.70
2023-04-16T17:32:38.134Z,6.20
2023-04-16T17:35:06.897Z,7.63
2023-04-16T17:37:33.546Z,2.77
2023-04-16T17:40:00.225Z,4.57
2023-04-16T17:42:26.816Z,3.23
2023-04-16T17:44:53.434Z,3.97
2023-04-16T17:47:20.166Z,5.23
2023-04-16T17:49:46.833Z,3.83
2023-04-16T17:52:13.480Z,4.87
2023-04-16T17:54:40.053Z,3.73
2023-04-16T17:57:06.696Z,4.10
2023-04-16T17:59:33.389Z,5.00
2023-04-16T18:02:00.180Z,5.20
2023-04-16T18:04:26.969Z,6.70
2023-04-16T18:06:53.953Z,7.20
2023-04-16T18:09:20.671Z,6.83
2023-04-16T18:11:47.328Z,6.30
2023-04-16T18:14:16.896Z,14.63
2023-04-16T18:16:43.592Z,5.90
2023-04-16T18:19:10.254Z,7.20
2023-04-16T18:21:36.892Z,7.60
2023-04-16T18:24:03.632Z,4.40
2023-04-16T18:26:30.252Z,6.07
2023-04-16T18:28:57.153Z,4.57
2023-04-16T18:31:23.910Z,6.63
2023-04-16T18:33:57.524Z,4.00
2023-04-16T18:36:26.829Z,5.10
2023-04-16T18:39:15.043Z,4.77
2023-04-16T18:41:41.670Z,7.70
2023-04-16T18:44:10.747Z,5.53
2023-04-16T18:46:37.391Z,4.83
2023-04-16T18:49:04.049Z,5.70
2023-04-16T18:51:30.762Z,9.20
2023-04-16T18:53:57.432Z,7.70
2023-04-16T18:56:24.072Z,6.93
2023-04-16T18:58:50.756Z,5.27
2023-04-16T19:01:18.021Z,5.87
2023-04-16T19:03:45.636Z,5.60
2023-04-16T19:06:12.281Z,5.80
2023-04-16T19:08:38.924Z,5.23
2023-04-16T19:11:05.530Z,6.30
2023-04-16T19:13:32.437Z,4.57
2023-04-16T19:16:00.040Z,6.57
2023-04-16T19:18:26.887Z,6.13
2023-04-16T19:21:00.730Z,3.60
2023-04-16T19:23:28.017Z,5.63
2023-04-16T19:25:56.779Z,8.70
2023-04-16T19:28:24.118Z,9.60
2023-04-16T19:30:51.542Z,14.27
2023-04-16T19:33:18.985Z,10.33
2023-04-16T19:35:46.431Z,8.70
2023-04-16T19:38:13.223Z,7.23
2023-04-16T19:40:40.379Z,8.90
2023-04-16T19:43:07.036Z,24.43
2023-04-16T19:45:33.698Z,22.47
2023-04-16T19:48:00.418Z,7.47
2023-04-16T19:50:27.082Z,7.97
2023-04-16T19:52:53.800Z,18.97
2023-04-16T19:55:20.505Z,13.40
2023-04-16T19:57:48.138Z,12.97
2023-04-16T20:00:15.257Z,11.27
2023-04-16T20:02:42.083Z,11.70
2023-04-16T20:05:09.402Z,11.60
2023-04-16T20:07:36.053Z,8.87
2023-04-16T20:10:03.058Z,9.63
2023-04-16T20:12:29.740Z,10.50
2023-04-16T20:14:56.377Z,10.43
2023-04-16T20:17:23.069Z,15.30
2023-04-16T20:19:51.249Z,10.23
2023-04-16T20:22:18.892Z,8.87
2023-04-16T20:24:48.104Z,6.87
2023-04-16T20:27:15.446Z,8.87
2023-04-16T20:29:42.196Z,5.63
2023-04-16T20:32:08.949Z,7.07
2023-04-16T20:34:36.708Z,8.30
2023-04-16T20:37:06.378Z,10.63
2023-04-16T20:39:40.666Z,9.73
2023-04-16T20:42:10.445Z,7.00
2023-04-16T20:44:50.649Z,5.63
2023-04-16T20:47:17.516Z,5.60
2023-04-16T20:49:47.603Z,9.40
2023-04-16T20:52:15.515Z,7.10
2023-04-16T20:54:42.216Z,6.77
2023-04-16T20:57:08.885Z,8.77
2023-04-16T20:59:36.968Z,7.63
2023-04-16T21:02:03.897Z,8.63
2023-04-16T21:04:30.763Z,11.37
2023-04-16T21:06:57.648Z,12.47
2023-04-16T21:09:24.368Z,16.37
2023-04-16T21:11:51.148Z,9.57
2023-04-16T21:14:17.728Z,8.73
2023-04-16T21:16:44.398Z,10.07
2023-04-16T21:19:11.256Z,8.17
2023-04-16T21:21:38.947Z,8.63
2023-04-16T21:24:06.010Z,7.93
2023-04-16T21:26:32.580Z,9.80
2023-04-16T21:28:59.141Z,9.57
2023-04-16T21:31:25.837Z,12.50
2023-04-16T21:33:52.524Z,9.77
2023-04-16T21:36:19.129Z,11.07
2023-04-16T21:38:45.778Z,7.33
2023-04-16T21:41:12.375Z,10.33
2023-04-16T21:43:38.967Z,10.50
2023-04-16T21:46:05.560Z,7.43
2023-04-16T21:48:32.126Z,7.17
2023-04-16T21:51:01.136Z,8.23
2023-04-16T21:53:32.080Z,14.33
2023-04-16T21:55:58.966Z,14.27
2023-04-16T21:58:25.955Z,17.50
2023-04-16T22:00:53.037Z,17.80
2023-04-16T22:03:19.821Z,15.73
2023-04-16T22:05:46.622Z,13.10
2023-04-16T22:08:24.105Z,12.27
2023-04-16T22:10:51.698Z,9.17
2023-04-16T22:13:18.546Z,11.13
2023-04-16T22:15:45.270Z,8.87
2023-04-16T22:18:12.180Z,7.67
2023-04-16T22:20:39.308Z,9.20
2023-04-16T22:23:08.976Z,8.53
2023-04-16T22:25:35.557Z,5.90
2023-04-16T22:28:02.116Z,6.00
2023-04-16T22:30:28.706Z,7.30
2023-04-16T22:32:55.476Z,9.77
2023-04-16T22:35:22.167Z,9.23
2023-04-16T22:37:48.756Z,9.20
2023-04-16T22:40:15.961Z,9.30
2023-04-16T22:42:42.697Z,8.80
2023-04-16T22:45:09.689Z,8.50
2023-04-16T22:47:36.358Z,6.87
2023-04-16T22:50:03.344Z,7.47
2023-04-16T22:52:29.984Z,6.87
2023-04-16T22:54:56.565Z,10.73
2023-04-16T22:57:25.676Z,12.63
2023-04-16T22:59:53.161Z,7.70
2023-04-16T23:02:20.839Z,11.13
2023-04-16T23:04:48.037Z,9.37
2023-04-16T23:07:15.629Z,8.57
2023-04-16T23:09:42.679Z,10.13
2023-04-16T23:12:09.321Z,12.67
2023-04-16T23:14:45.961Z,10.97
2023-04-16T23:17:13.806Z,12.90
2023-04-16T23:19:40.498Z,8.80
2023-04-16T23:22:07.150Z,16.00
2023-04-16T23:24:33.771Z,12.13
2023-04-16T23:27:01.128Z,7.80
2023-04-16T23:29:27.720Z,8.60
2023-04-16T23:31:54.434Z,9.23
2023-04-16T23:34:21.082Z,9.80
2023-04-16T23:36:47.827Z,11.60
2023-04-16T23:39:14.408Z,10.43
2023-04-16T23:41:41.019Z,11.73
2023-04-16T23:44:07.605Z,11.13
2023-04-16T23:46:34.288Z,12.87
2023-04-16T23:49:01.102Z,11.90
2023-04-16T23:51:27.722Z,7.97
2023-04-16T23:53:54.354Z,9.53
2023-04-16T23:56:21.187Z,8.97
2023-04-16T23:58:47.804Z,7.20
